Time;durP1;ratioP1;P1;durP2;ratioP2;P2;SDS_P1;SDS_P2;PMS_P1;PMS_P2;Temp;Humidity;BMP_temperature;BMP_pressure;BME280_temperature;BME280_humidity;BME280_pressure;Samples;Min_cycle;Max_cycle;Signal;HPM_P1;HPM_P2
2023/04/18 00:01:37;;;;;;;16.23;10.90;;;;;;;8.24;94.45;101097.84;5035979;28;20057;-92
2023/04/18 00:04:06;;;;;;;14.38;10.85;;;;;;;7.89;95.01;101038.09;5024430;28;20049;-91
2023/04/18 00:06:35;;;;;;;14.10;10.20;;;;;;;8.14;94.89;101093.72;5030480;28;20621;-92
2023/04/18 00:09:04;;;;;;;17.90;10.32;;;;;;;8.13;94.61;101086.72;5041239;28;20033;-92
2023/04/18 00:11:37;;;;;;;15.07;10.63;;;;;;;7.94;93.69;101052.91;5037555;28;20053;-91
2023/04/18 00:14:05;;;;;;;20.02;10.73;;;;;;;7.59;92.86;100992.28;5035981;28;20101;-91
2023/04/18 00:16:37;;;;;;;17.23;10.52;;;;;;;8.13;92.51;101082.31;5060550;28;20061;-90
2023/04/18 00:19:05;;;;;;;16.63;9.43;;;;;;;7.98;91.93;101062.47;5051300;28;20029;-89
2023/04/18 00:21:48;;;;;;;16.60;9.80;;;;;;;7.99;93.12;101064.19;5044504;28;20076;-90
2023/04/18 00:24:20;;;;;;;16.40;9.90;;;;;;;7.96;93.17;101056.38;5044232;28;20069;-92
2023/04/18 00:26:49;;;;;;;14.77;10.82;;;;;;;7.69;93.95;101021.03;5030253;28;20065;-92
2023/04/18 00:29:19;;;;;;;15.23;10.40;;;;;;;8.01;95.44;101091.41;5020812;28;20120;-89
2023/04/18 00:31:50;;;;;;;;;;;;;;;7.94;96.92;101086.31;5033735;28;20065;-92
2023/04/18 00:34:17;;;;;;;14.43;9.98;;;;;;;7.82;98.99;101066.41;5035750;28;19976;-92
2023/04/18 00:36:51;;;;;;;13.23;10.60;;;;;;;7.67;99.20;101056.22;5035419;28;20068;-90
2023/04/18 00:39:18;;;;;;;16.60;10.45;;;;;;;7.62;99.63;101056.34;5030325;28;20030;-92
2023/04/18 00:41:45;;;;;;;14.18;11.05;;;;;;;7.76;98.84;101077.09;5015367;28;20025;-93
2023/04/18 00:44:12;;;;;;;14.40;10.95;;;;;;;7.44;98.78;101037.47;5036245;28;20037;-91
2023/04/18 00:46:43;;;;;;;16.83;11.13;;;;;;;7.51;99.81;101045.19;5047927;28;20045;-92
2023/04/18 00:49:11;;;;;;;16.42;10.75;;;;;;;7.66;99.88;101081.72;5035430;28;20033;-94
2023/04/18 00:51:43;;;;;;;16.88;10.88;;;;;;;7.61;100.00;101080.09;5036906;28;20060;-93
2023/04/18 00:54:11;;;;;;;17.45;11.60;;;;;;;7.07;100.00;100990.94;5029549;28;20045;-92
2023/04/18 00:56:39;;;;;;;14.48;10.60;;;;;;;7.33;100.00;101035.09;5021421;28;20144;-94
2023/04/18 00:59:27;;;;;;;15.90;10.77;;;;;;;7.54;100.00;101082.03;5033001;28;20052;-92
2023/04/18 01:02:11;;;;;;;18.88;11.40;;;;;;;7.18;100.00;101017.88;5036405;28;20037;-90
2023/04/18 01:04:42;;;;;;;16.20;10.35;;;;;;;7.31;100.00;101045.66;5016082;28;20030;-90
2023/04/18 01:07:14;;;;;;;15.73;11.05;;;;;;;7.17;100.00;101023.16;5019527;28;20054;-90
2023/04/18 01:09:45;;;;;;;17.58;11.27;;;;;;;7.36;100.00;101069.28;5038257;28;20046;-91
2023/04/18 01:12:13;;;;;;;18.08;11.38;;;;;;;7.44;100.00;101079.63;5040190;28;20054;-90
2023/04/18 01:14:45;;;;;;;15.52;11.18;;;;;;;7.44;100.00;101076.97;5022839;28;20045;-93
2023/04/18 01:17:18;;;;;;;20.13;11.13;;;;;;;7.08;100.00;101023.41;5019634;28;20060;-93
2023/04/18 01:19:47;;;;;;;16.27;11.43;;;;;;;7.30;100.00;101062.38;5004487;28;20105;-93
2023/04/18 01:22:17;;;;;;;15.07;10.35;;;;;;;7.36;100.00;101069.28;5010147;28;20523;-91
2023/04/18 01:24:57;;;;;;;17.50;11.18;;;;;;;7.34;100.00;101065.81;5011549;28;20046;-92
2023/04/18 01:27:25;;;;;;;16.25;11.73;;;;;;;7.36;100.00;101078.03;5024642;28;20046;-91
2023/04/18 01:29:53;;;;;;;18.15;11.57;;;;;;;7.13;100.00;101032.91;5014413;28;20049;-92
2023/04/18 01:32:30;;;;;;;16.95;11.50;;;;;;;7.37;100.00;101065.75;5023986;28;20038;-93
2023/04/18 01:34:58;;;;;;;18.23;11.40;;;;;;;7.30;100.00;101053.59;5018716;28;20258;-91
2023/04/18 01:37:27;;;;;;;19.92;11.48;;;;;;;7.24;100.00;101049.31;5022775;28;20042;-93
2023/04/18 01:39:57;;;;;;;15.80;11.23;;;;;;;6.99;100.00;101003.38;5005512;28;20647;-92
2023/04/18 01:42:27;;;;;;;15.98;11.70;;;;;;;7.29;100.00;101065.03;5012689;28;20524;-92
2023/04/18 01:44:58;;;;;;;;;;;;;;;7.27;100.00;101056.28;5019325;28;20165;-95
2023/04/18 01:47:44;;;;;;;19.90;12.25;;;;;;;7.24;100.00;101057.22;5008039;28;19932;-92
2023/04/18 01:50:16;;;;;;;18.88;12.10;;;;;;;7.01;100.00;101020.03;5018080;28;20123;-93
2023/04/18 01:52:52;;;;;;;16.25;11.70;;;;;;;6.90;100.00;101001.84;5001510;28;20113;-94
2023/04/18 01:55:23;;;;;;;20.13;12.02;;;;;;;7.10;100.00;101038.22;5008796;28;20510;-94
2023/04/18 01:57:53;;;;;;;19.15;12.15;;;;;;;6.90;100.00;101000.97;5017433;28;20096;-93
2023/04/18 02:00:34;;;;;;;17.10;12.23;;;;;;;7.23;100.00;101058.16;5000434;28;20427;-93
2023/04/18 02:03:03;;;;;;;17.48;11.60;;;;;;;6.89;100.00;101001.88;5008700;28;20048;-93
2023/04/18 02:05:36;;;;;;;18.77;11.90;;;;;;;7.14;100.00;101039.03;5010081;28;20158;-93
2023/04/18 02:08:04;;;;;;;16.20;11.52;;;;;;;7.11;100.00;101047.88;5019351;28;20076;-94
2023/04/18 02:10:39;;;;;;;18.73;12.40;;;;;;;6.85;100.00;101005.47;5015551;28;20049;-94
2023/04/18 02:13:11;;;;;;;17.45;12.63;;;;;;;6.75;100.00;100996.03;5032630;28;20071;-92
2023/04/18 02:15:44;;;;;;;18.20;12.85;;;;;;;6.97;100.00;101024.47;4955703;28;20034;-94
2023/04/18 02:18:23;;;;;;;20.65;13.30;;;;;;;7.01;100.00;101044.59;5013945;28;20053;-92
2023/04/18 02:20:54;;;;;;;19.25;12.65;;;;;;;6.95;100.00;101044.72;5006920;28;20072;-93
2023/04/18 02:23:29;;;;;;;18.00;12.68;;;;;;;6.68;100.00;101004.06;5019395;28;20117;-92
2023/04/18 02:25:57;;;;;;;20.90;13.10;;;;;;;6.91;100.00;101044.84;5034332;28;20072;-92
2023/04/18 02:28:25;;;;;;;16.88;12.98;;;;;;;6.81;100.00;101041.50;5020735;28;20042;-93
2023/04/18 02:30:54;;;;;;;19.38;14.02;;;;;;;6.44;100.00;100986.16;5003350;28;20068;-93
2023/04/18 02:33:29;;;;;;;20.40;13.50;;;;;;;6.55;100.00;101018.38;5009795;28;20053;-91
2023/04/18 02:36:13;;;;;;;22.50;14.13;;;;;;;6.71;100.00;101050.50;5018309;28;20100;-89
2023/04/18 02:38:44;;;;;;;19.23;13.27;;;;;;;6.57;100.00;101026.25;5013502;28;20049;-90
2023/04/18 02:41:18;;;;;;;20.10;13.18;;;;;;;6.60;100.00;101034.94;5014795;28;20120;-91
2023/04/18 02:43:45;;;;;;;18.08;13.65;;;;;;;6.64;100.00;101044.50;5039384;28;20033;-90
2023/04/18 02:46:12;;;;;;;18.35;14.02;;;;;;;6.67;100.00;101047.06;5023594;28;20045;-90
2023/04/18 02:48:42;;;;;;;18.52;13.38;;;;;;;6.42;100.00;101005.50;5022572;28;20041;-91
2023/04/18 02:51:12;;;;;;;26.85;15.07;;;;;;;6.40;100.00;101005.53;5038478;28;20060;-93
2023/04/18 02:53:42;;;;;;;19.83;14.05;;;;;;;6.45;100.00;101021.25;5039565;28;20056;-92
2023/04/18 02:56:15;;;;;;;19.97;13.83;;;;;;;6.32;100.00;101007.44;5027891;28;20065;-92
2023/04/18 02:58:57;;;;;;;20.52;13.98;;;;;;;6.52;100.00;101049.13;5009959;28;20044;-92
2023/04/18 03:01:31;;;;;;;22.20;15.02;;;;;;;6.40;100.00;101030.97;5042258;28;20105;-90
2023/04/18 03:04:12;;;;;;;22.73;14.23;;;;;;;6.15;100.00;100999.00;5029412;28;20060;-92
2023/04/18 03:06:57;;;;;;;21.70;15.18;;;;;;;6.30;100.00;101025.00;5040110;28;20148;-93
2023/04/18 03:09:28;;;;;;;19.75;14.02;;;;;;;6.27;100.00;101011.94;5039624;28;20452;-93
2023/04/18 03:12:03;;;;;;;21.40;14.65;;;;;;;6.51;100.00;101060.56;5019160;28;20215;-94
2023/04/18 03:14:38;;;;;;;22.80;14.45;;;;;;;6.33;100.00;101040.75;5052910;28;20058;-91
2023/04/18 03:17:05;;;;;;;21.33;13.82;;;;;;;6.03;100.00;101001.88;5037904;28;20109;-91
2023/04/18 03:19:34;;;;;;;20.02;15.30;;;;;;;6.04;100.00;101015.00;5057478;28;20060;-90
2023/04/18 03:22:14;;;;;;;28.02;15.18;;;;;;;6.24;100.00;101054.06;5043423;28;20049;-91
2023/04/18 03:24:43;;;;;;;23.58;14.98;;;;;;;5.97;100.00;101014.25;5025507;28;20131;-92
2023/04/18 03:27:17;;;;;;;24.48;15.25;;;;;;;6.23;100.00;101062.84;5029611;28;20071;-92
2023/04/18 03:29:44;;;;;;;21.52;14.98;;;;;;;5.88;100.00;101013.50;5023147;28;20047;-92
2023/04/18 03:32:17;;;;;;;24.27;15.73;;;;;;;6.14;100.00;101065.66;5027642;28;20069;-92
2023/04/18 03:34:44;;;;;;;21.63;15.00;;;;;;;5.76;100.00;100998.81;5018061;28;20044;-93
2023/04/18 03:37:15;;;;;;;27.80;15.57;;;;;;;5.79;100.00;101006.66;5026001;28;20051;-92
2023/04/18 03:39:44;;;;;;;24.52;15.18;;;;;;;6.03;100.00;101060.59;5022530;28;20056;-93
2023/04/18 03:42:14;;;;;;;28.17;17.40;;;;;;;6.03;100.00;101068.47;5013443;28;20056;-94
2023/04/18 03:44:42;;;;;;;26.30;16.92;;;;;;;5.64;100.00;101001.69;5032278;28;20109;-92
2023/04/18 03:47:13;;;;;;;25.15;15.50;;;;;;;6.01;100.00;101067.63;5027800;28;20072;-91
2023/04/18 03:49:44;;;;;;;23.55;16.20;;;;;;;5.78;100.00;101019.81;5016349;28;20041;-93
2023/04/18 03:52:11;;;;;;;26.08;16.98;;;;;;;5.80;100.00;101020.69;5004666;28;20100;-93
2023/04/18 03:54:42;;;;;;;25.27;17.77;;;;;;;5.76;100.00;101019.84;5019989;28;20054;-90
2023/04/18 03:57:12;;;;;;;26.27;16.50;;;;;;;6.01;100.00;101077.28;5023872;28;20071;-93
2023/04/18 03:59:42;;;;;;;26.90;17.73;;;;;;;5.67;100.00;101009.47;5019535;28;20049;-94
2023/04/18 04:02:12;;;;;;;24.80;17.00;;;;;;;6.04;100.00;101069.34;5032121;28;20088;-94
2023/04/18 04:04:44;;;;;;;28.50;18.40;;;;;;;6.03;100.00;101064.97;5028959;28;20458;-95
2023/04/18 04:07:16;;;;;;;24.20;16.70;;;;;;;5.80;100.00;101042.56;5044550;28;20360;-91
2023/04/18 04:09:44;;;;;;;23.92;17.63;;;;;;;5.62;100.00;101004.31;5028295;28;20045;-91
2023/04/18 04:12:14;;;;;;;27.05;17.20;;;;;;;5.94;100.00;101069.50;5038883;28;20064;-91
2023/04/18 04:14:42;;;;;;;26.08;17.90;;;;;;;5.63;100.00;101021.81;5035786;28;20069;-91
2023/04/18 04:17:17;;;;;;;28.15;18.05;;;;;;;5.82;100.00;101064.44;5029557;28;20038;-91
2023/04/18 04:19:45;;;;;;;26.23;18.05;;;;;;;5.55;100.00;101017.56;5028304;28;20060;-92
2023/04/18 04:22:28;;;;;;;25.95;17.80;;;;;;;5.60;100.00;101031.50;5033012;28;20096;-91
2023/04/18 04:24:56;;;;;;;26.73;17.52;;;;;;;5.49;100.00;101020.31;5026011;28;20108;-90
2023/04/18 04:27:25;;;;;;;30.08;17.63;;;;;;;5.57;100.00;101034.19;5032104;28;20297;-91
2023/04/18 04:29:59;;;;;;;26.35;17.65;;;;;;;5.19;100.00;100983.16;5051302;28;20110;-91
2023/04/18 04:32:31;;;;;;;28.10;17.83;;;;;;;5.38;100.00;101011.72;5046148;28;20077;-90
2023/04/18 04:35:14;;;;;;;27.63;18.55;;;;;;;5.58;100.00;101036.78;5041384;28;20029;-91
2023/04/18 04:37:44;;;;;;;27.75;18.25;;;;;;;5.80;100.00;101084.63;5221469;22;20033;-91
2023/04/18 04:40:19;;;;;;;26.00;17.20;;;;;;;5.59;100.00;101046.41;5028046;28;20057;-91
2023/04/18 04:43:03;;;;;;;27.90;18.15;;;;;;;5.70;100.00;101064.63;5008114;28;20046;-92
2023/04/18 04:45:50;;;;;;;24.33;18.42;;;;;;;5.84;100.00;101088.91;5014558;28;20037;-89
2023/04/18 04:48:28;;;;;;;26.30;18.20;;;;;;;5.74;100.00;101058.44;5007821;28;20048;-93
2023/04/18 04:50:59;;;;;;;27.25;17.95;;;;;;;5.91;100.00;101087.97;5008702;28;20073;-93
2023/04/18 04:53:29;;;;;;;24.88;16.80;;;;;;;5.70;100.00;101051.47;5023282;28;20056;-93
2023/04/18 04:55:59;;;;;;;27.50;17.63;;;;;;;5.59;100.00;101021.91;5007520;28;20068;-91
2023/04/18 04:58:39;;;;;;;25.70;17.55;;;;;;;5.99;100.00;101082.56;4992172;28;20045;-92
2023/04/18 05:01:22;;;;;;;25.90;17.98;;;;;;;6.08;100.00;101092.94;5120631;22;20054;-93
2023/04/18 05:04:07;;;;;;;26.10;17.27;;;;;;;5.79;100.00;101024.19;5034923;28;20037;-92
2023/04/18 05:06:36;;;;;;;25.90;16.70;;;;;;;6.04;100.00;101056.19;5015353;28;20053;-93
2023/04/18 05:09:20;;;;;;;24.80;16.45;;;;;;;6.22;100.00;101077.78;5012990;28;20041;-93
2023/04/18 05:11:48;;;;;;;23.13;16.60;;;;;;;6.25;100.00;101076.84;5020728;28;20518;-93
2023/04/18 05:14:16;;;;;;;25.73;17.23;;;;;;;6.43;100.00;101087.03;5012712;28;20467;-92
2023/04/18 05:17:07;;;;;;;26.17;15.95;;;;;;;5.92;100.00;100994.19;5013625;28;20057;-92
2023/04/18 05:19:42;;;;;;;23.40;15.40;;;;;;;6.37;100.00;101049.44;5015954;28;20057;-91
2023/04/18 05:22:17;;;;;;;23.42;15.45;;;;;;;6.50;100.00;101053.56;5022787;28;20049;-91
2023/04/18 05:25:07;;;;;;;24.08;16.23;;;;;;;6.86;100.00;101101.97;5135320;23;20117;-90
2023/04/18 05:27:37;;;;;;;22.45;15.07;;;;;;;6.87;100.00;101096.69;5029416;28;20042;-92
2023/04/18 05:30:20;;;;;;;19.02;13.85;;;;;;;6.89;100.00;101100.16;5037061;28;20053;-92
2023/04/18 05:33:23;;;;;;;20.25;14.55;;;;;;;6.96;100.00;101103.50;5040396;28;20050;-92
2023/04/18 05:36:16;;;;;;;21.42;14.10;;;;;;;7.04;100.00;101105.09;5062341;28;20037;-92
2023/04/18 05:38:42;;;;;;;20.40;14.20;;;;;;;6.89;100.00;101065.91;5030291;28;20045;-91
2023/04/18 05:41:25;;;;;;;21.77;14.68;;;;;;;7.06;100.00;101105.06;5060519;28;20033;-92
2023/04/18 05:43:54;;;;;;;21.95;14.75;;;;;;;6.95;100.00;101085.97;5062972;23;20103;-93
2023/04/18 05:46:43;;;;;;;22.15;14.20;;;;;;;7.11;100.00;101108.44;5163769;22;20053;-92
2023/04/18 05:49:11;;;;;;;20.20;13.60;;;;;;;6.82;100.00;101059.03;4994409;28;20042;-93
2023/04/18 05:51:41;;;;;;;21.92;14.30;;;;;;;7.16;100.00;101111.84;4986399;28;20055;-94
2023/04/18 05:54:57;;;;;;;21.17;14.05;;;;;;;7.24;100.00;101109.06;4996100;28;20040;-94
2023/04/18 05:58:05;;;;;;;19.10;13.90;;;;;;;7.40;100.00;101110.44;5007375;28;20038;-93
2023/04/18 06:01:03;;;;;;;19.63;14.18;;;;;;;7.49;100.00;101097.06;4942761;29;20091;-94
2023/04/18 06:03:42;;;;;;;18.95;13.40;;;;;;;7.57;100.00;101097.75;4923471;29;20054;-94
2023/04/18 06:06:18;;;;;;;20.58;13.57;;;;;;;7.73;100.00;101114.06;4922548;29;20059;-92
2023/04/18 06:08:49;;;;;;;19.15;13.80;;;;;;;7.74;100.00;101110.53;4927891;29;20042;-91
2023/04/18 06:12:05;;;;;;;21.67;13.95;;;;;;;7.49;100.00;101061.94;4950020;29;20096;-91
2023/04/18 06:15:10;;;;;;;19.30;13.45;;;;;;;7.87;100.00;101127.78;5597547;23;20083;-93
2023/04/18 06:18:03;;;;;;;20.25;13.93;;;;;;;7.62;100.00;101090.59;5024567;28;20048;-92
2023/04/18 06:20:44;;;;;;;17.98;13.73;;;;;;;7.94;100.00;101132.00;5024647;28;20052;-93
2023/04/18 06:23:33;;;;;;;18.65;13.18;;;;;;;7.82;100.00;101108.59;5030860;28;20064;-92
2023/04/18 06:26:24;;;;;;;17.60;13.38;;;;;;;7.47;100.00;101050.56;5018288;28;20139;-93
2023/04/18 06:29:08;;;;;;;19.08;13.63;;;;;;;7.61;100.00;101072.19;5023322;28;20053;-94
2023/04/18 06:31:44;;;;;;;18.10;13.10;;;;;;;8.06;100.00;101134.34;5025104;28;20034;-91
2023/04/18 06:37:12;;;;;;;19.42;13.43;;;;;;;8.10;100.00;101156.25;5355514;23;20080;-93
2023/04/18 06:39:41;;;;;;;19.92;13.75;;;;;;;8.05;100.00;101145.78;5027878;28;20080;-92
2023/04/18 06:42:18;;;;;;;17.75;13.23;;;;;;;7.84;100.00;101127.88;5030411;28;20072;-92
2023/04/18 06:45:05;;;;;;;19.00;12.73;;;;;;;7.81;100.00;101121.81;5022564;28;20041;-92
2023/04/18 06:47:40;;;;;;;18.77;13.10;;;;;;;7.96;100.00;101148.66;5044948;28;20494;-92
2023/04/18 06:50:27;;;;;;;18.98;13.05;;;;;;;7.47;100.00;101064.59;5028616;28;20100;-92
2023/04/18 06:53:13;;;;;;;17.90;12.30;;;;;;;7.86;100.00;101123.44;5020120;28;20410;-93
2023/04/18 06:55:43;;;;;;;19.75;13.35;;;;;;;8.05;100.00;101140.50;5017779;28;20041;-93
2023/04/18 06:58:33;;;;;;;19.00;12.90;;;;;;;7.78;100.00;101082.31;5045893;28;20112;-91
2023/04/18 07:06:35;;;;;;;19.30;13.68;;;;;;;8.38;100.00;101161.72;5039809;28;20068;-93
2023/04/18 07:09:09;;;;;;;16.60;12.18;;;;;;;8.15;100.00;101111.28;5038401;28;20049;-92
2023/04/18 07:11:41;;;;;;;16.80;11.95;;;;;;;8.49;100.00;101170.25;5037561;28;20042;-91
2023/04/18 07:14:30;;;;;;;18.40;12.37;;;;;;;8.57;100.00;101167.38;5055454;28;20041;-93
2023/04/18 07:17:16;;;;;;;15.27;11.32;;;;;;;8.13;100.00;101070.88;5049292;28;20042;-91
2023/04/18 07:19:58;;;;;;;18.17;12.88;;;;;;;8.42;100.00;101115.88;5016298;28;20050;-94
2023/04/18 07:22:52;;;;;;;17.90;11.52;;;;;;;8.87;100.00;101155.13;5025498;28;20113;-92
2023/04/18 07:26:20;;;;;;;15.52;11.23;;;;;;;9.04;100.00;101156.38;5027451;28;20093;-90
2023/04/18 07:29:22;;;;;;;17.58;11.40;;;;;;;9.19;100.00;101159.50;5027400;28;20052;-92
2023/04/18 07:32:29;;;;;;;15.05;10.90;;;;;;;8.56;100.00;101050.38;5054262;28;20079;-93
2023/04/18 07:35:39;;;;;;;12.32;10.02;;;;;;;9.22;100.00;101154.13;5029288;28;20046;-92
2023/04/18 07:38:27;;;;;;;13.60;10.32;;;;;;;9.15;100.00;101133.16;5034464;28;20072;-94
2023/04/18 07:41:15;;;;;;;14.40;10.10;;;;;;;9.35;100.00;101164.28;5041508;28;20109;-93
2023/04/18 07:44:06;;;;;;;14.85;9.88;;;;;;;9.20;100.00;101138.31;5024855;28;20060;-94
2023/04/18 07:46:37;;;;;;;12.50;9.40;;;;;;;9.16;100.00;101128.72;5046052;28;20045;-92
2023/04/18 07:49:21;;;;;;;15.27;10.18;;;;;;;9.38;100.00;101173.91;5033423;28;20106;-92
2023/04/18 07:52:10;;;;;;;14.10;9.98;;;;;;;8.68;100.00;101064.97;5000102;28;20049;-92
2023/04/18 07:55:32;;;;;;;12.27;9.48;;;;;;;9.35;100.00;101177.50;5053005;27;2621157;-92
2023/04/18 07:58:04;;;;;;;11.32;8.93;;;;;;;9.27;100.00;101161.03;5105699;28;20050;-92
2023/04/18 08:00:59;;;;;;;12.95;9.43;;;;;;;8.95;100.00;101089.75;5102503;28;20046;-91
2023/04/18 08:04:06;;;;;;;11.13;8.68;;;;;;;9.45;100.00;101126.06;5098122;28;20059;-94
2023/04/18 08:06:56;;;;;;;11.27;8.85;;;;;;;9.82;100.00;101103.78;5104236;28;20050;-92
2023/04/18 08:09:30;;;;;;;11.63;8.95;;;;;;;10.20;100.00;101113.13;5101934;28;20070;-92
2023/04/18 08:12:04;;;;;;;10.73;8.10;;;;;;;10.86;97.66;101172.59;5076409;28;20029;-92
2023/04/18 08:14:32;;;;;;;12.38;9.10;;;;;;;10.94;94.43;101157.28;5091869;28;20044;-93
2023/04/18 08:17:37;;;;;;;10.98;8.55;;;;;;;10.69;91.64;101106.13;5107681;28;20074;-93
2023/04/18 08:20:17;;;;;;;11.30;8.48;;;;;;;10.98;89.96;101134.19;5100236;28;20028;-93
2023/04/18 08:22:44;;;;;;;13.80;8.63;;;;;;;10.89;87.24;101130.06;5110766;28;20020;-90
2023/04/18 08:25:34;;;;;;;12.18;9.52;;;;;;;11.07;87.94;101174.47;5100756;28;20052;-94
2023/04/18 08:28:01;;;;;;;11.55;8.48;;;;;;;10.82;88.83;101149.78;5103049;28;20052;-94
2023/04/18 08:30:31;;;;;;;14.02;10.35;;;;;;;10.90;89.29;101177.72;5103839;28;20040;-92
2023/04/18 08:33:06;;;;;;;11.18;8.82;;;;;;;10.91;90.51;101181.22;5096200;28;20040;-93
2023/04/18 08:35:47;;;;;;;11.50;8.65;;;;;;;10.93;92.68;101168.81;5097919;28;20123;-93
2023/04/18 08:38:21;;;;;;;12.18;9.48;;;;;;;11.09;92.26;101177.94;5100167;28;20044;-92
2023/04/18 08:40:53;;;;;;;11.50;8.60;;;;;;;11.19;89.83;101168.69;5090725;28;20590;-95
2023/04/18 08:43:20;;;;;;;10.25;8.10;;;;;;;11.25;90.27;101167.63;5102340;28;20104;-91
2023/04/18 08:46:03;;;;;;;11.63;8.70;;;;;;;11.00;89.63;101106.72;5098527;28;20145;-93
2023/04/18 08:48:48;;;;;;;11.48;8.77;;;;;;;11.58;88.49;101187.56;5091610;28;20119;-94
2023/04/18 08:51:22;;;;;;;12.15;9.10;;;;;;;11.67;85.92;101178.38;5080732;28;20051;-92
2023/04/18 08:54:05;;;;;;;13.07;8.95;;;;;;;11.16;85.80;101114.97;5088911;28;20049;-92
2023/04/18 08:56:36;;;;;;;10.88;8.80;;;;;;;11.63;85.54;101194.47;5096107;28;20056;-94
2023/04/18 08:59:10;;;;;;;11.73;9.18;;;;;;;11.72;84.91;101184.38;5100207;28;20032;-91
2023/04/18 09:02:03;;;;;;;11.55;8.63;;;;;;;11.70;84.69;101185.34;5090388;28;20035;-91
2023/04/18 09:04:35;;;;;;;13.68;9.18;;;;;;;11.51;86.58;101186.03;5107623;28;20036;-91
2023/04/18 09:07:14;;;;;;;12.68;9.07;;;;;;;11.58;86.03;101174.28;5092241;28;20100;-93
2023/04/18 09:09:47;;;;;;;11.38;8.15;;;;;;;11.82;86.33;101171.63;5095601;28;20868;-91
2023/04/18 09:12:24;;;;;;;13.25;8.90;;;;;;;12.18;86.22;101163.97;5097410;28;20050;-92
2023/04/18 09:14:56;;;;;;;12.60;8.70;;;;;;;12.30;83.43;101159.00;5081559;28;20047;-92
2023/04/18 09:17:35;;;;;;;11.75;9.05;;;;;;;12.35;82.43;101165.91;5097277;28;20060;-92
2023/04/18 09:20:14;;;;;;;12.75;8.55;;;;;;;12.47;82.19;101162.75;5090664;28;20033;-92
2023/04/18 09:22:56;;;;;;;11.98;8.82;;;;;;;12.51;79.29;101159.91;5085345;28;20637;-93
2023/04/18 09:25:38;;;;;;;12.98;8.20;;;;;;;12.40;77.03;101159.50;5085401;28;20086;-91
2023/04/18 09:28:32;;;;;;;9.70;8.23;;;;;;;12.09;77.87;101111.25;5082939;28;20044;-91
2023/04/18 09:31:22;;;;;;;11.73;7.90;;;;;;;12.61;77.62;101155.03;5082122;28;20074;-93
2023/04/18 09:34:04;;;;;;;10.73;7.95;;;;;;;12.75;74.80;101165.09;5079484;28;20083;-92
2023/04/18 09:36:37;;;;;;;12.07;8.27;;;;;;;12.85;74.06;101151.31;5084833;28;20040;-92
2023/04/18 09:39:28;;;;;;;10.35;7.57;;;;;;;13.05;73.14;101154.91;5082973;28;20052;-93
2023/04/18 09:42:02;;;;;;;10.38;8.25;;;;;;;12.90;73.87;101117.44;5259228;23;20053;-91
2023/04/18 09:45:05;;;;;;;9.98;7.40;;;;;;;13.23;71.18;101149.59;5048117;28;20068;-95
2023/04/18 09:47:35;;;;;;;9.65;7.43;;;;;;;13.27;70.82;101140.56;5063339;28;20037;-92
2023/04/18 09:50:09;;;;;;;10.20;7.68;;;;;;;13.09;71.84;101105.94;5076673;28;20044;-94
2023/04/18 09:52:40;;;;;;;12.05;7.55;;;;;;;12.98;71.32;101072.75;5064331;28;20063;-93
2023/04/18 09:55:22;;;;;;;8.93;7.40;;;;;;;12.94;70.24;101092.41;5065340;28;20040;-93
2023/04/18 09:57:58;;;;;;;10.75;7.85;;;;;;;13.12;71.82;101154.53;5064852;28;20048;-94
2023/04/18 10:00:29;;;;;;;10.80;8.32;;;;;;;12.75;73.39;101090.69;5045645;28;20442;-94
2023/04/18 10:03:02;;;;;;;10.23;7.63;;;;;;;12.95;73.38;101142.00;5073703;28;20494;-93
2023/04/18 10:05:34;;;;;;;10.50;7.90;;;;;;;12.81;74.89;101119.63;5063805;28;20072;-93
2023/04/18 10:08:06;;;;;;;11.52;7.60;;;;;;;13.02;73.25;101150.56;5081639;28;20465;-92
2023/04/18 10:10:46;;;;;;;9.20;7.15;;;;;;;12.81;74.77;101096.56;5061169;28;20045;-93
2023/04/18 10:13:14;;;;;;;10.38;7.10;;;;;;;12.98;73.04;101115.28;5045308;28;20593;-91
2023/04/18 10:16:05;;;;;;;8.23;6.95;;;;;;;13.06;73.29;101085.69;5058496;28;20055;-92
2023/04/18 10:18:50;;;;;;;10.35;7.35;;;;;;;13.60;71.39;101119.50;5083813;28;20037;-93
2023/04/18 10:21:20;;;;;;;10.95;7.60;;;;;;;13.89;69.89;101106.56;5070153;28;20044;-92
2023/04/18 10:23:54;;;;;;;9.03;7.30;;;;;;;14.50;65.40;101135.47;5066538;28;20063;-90
2023/04/18 10:26:48;;;;;;;9.32;7.10;;;;;;;14.69;63.83;101134.44;5050466;28;20475;-91
2023/04/18 10:29:17;;;;;;;9.55;7.10;;;;;;;14.72;64.78;101106.75;5054323;28;20032;-93
2023/04/18 10:31:50;;;;;;;7.38;6.53;;;;;;;14.89;63.12;101095.19;5082541;28;20059;-93
2023/04/18 10:34:28;;;;;;;9.30;6.25;;;;;;;15.06;60.99;101117.34;5083039;28;20044;-92
2023/04/18 10:37:05;;;;;;;8.98;6.47;;;;;;;14.78;59.58;101090.44;5069105;28;20510;-91
2023/04/18 10:39:52;;;;;;;6.88;6.18;;;;;;;14.83;60.03;101125.72;5076433;28;20060;-92
2023/04/18 10:42:51;;;;;;;8.35;6.18;;;;;;;14.90;60.59;101126.25;5068609;28;20045;-93
2023/04/18 10:45:23;;;;;;;8.00;6.85;;;;;;;14.77;59.95;101120.72;5087011;28;20039;-90
2023/04/18 10:48:28;;;;;;;8.52;6.53;;;;;;;14.58;61.11;101111.97;5062648;28;20056;-91
2023/04/18 10:51:15;;;;;;;8.65;6.72;;;;;;;14.43;62.66;101131.41;5062572;28;20040;-94
2023/04/18 10:53:52;;;;;;;8.77;6.15;;;;;;;14.20;63.95;101111.22;5070045;28;20048;-94
2023/04/18 10:56:27;;;;;;;9.07;7.00;;;;;;;14.15;64.66;101094.63;5071699;28;20051;-90
2023/04/18 10:59:02;;;;;;;8.20;6.22;;;;;;;14.20;66.37;101103.22;5066729;28;20096;-91
2023/04/18 11:01:46;;;;;;;10.25;7.30;;;;;;;14.18;65.22;101100.63;5056681;28;20055;-92
2023/04/18 11:04:27;;;;;;;8.80;6.37;;;;;;;14.16;65.19;101107.88;5071976;28;20052;-90
2023/04/18 11:07:10;;;;;;;9.57;7.20;;;;;;;14.15;65.85;101075.97;5072428;28;20562;-91
2023/04/18 11:09:55;;;;;;;8.13;7.13;;;;;;;14.43;65.07;101084.31;5057366;28;20055;-91
2023/04/18 11:12:31;;;;;;;9.50;7.40;;;;;;;14.68;64.55;101090.06;5069101;28;20045;-91
2023/04/18 11:15:09;;;;;;;10.48;6.75;;;;;;;14.96;64.08;101092.09;5058407;28;20033;-92
2023/04/18 11:17:39;;;;;;;8.57;7.00;;;;;;;14.97;61.57;101031.63;5046953;28;20457;-91
2023/04/18 11:20:12;;;;;;;9.75;6.38;;;;;;;15.51;62.87;101094.41;5088981;28;20032;-90
2023/04/18 11:22:48;;;;;;;7.85;6.35;;;;;;;15.57;61.74;101083.44;5074202;28;20062;-91
2023/04/18 11:25:35;;;;;;;8.90;6.40;;;;;;;15.45;62.08;101026.22;5074323;28;20060;-92
2023/04/18 11:28:12;;;;;;;7.88;6.50;;;;;;;15.74;62.83;101085.97;5073541;28;20108;-92
2023/04/18 11:31:11;;;;;;;7.28;5.90;;;;;;;15.50;62.03;101052.66;5069195;28;20048;-93
2023/04/18 11:34:08;;;;;;;6.82;5.72;;;;;;;15.33;61.94;101018.06;5104804;23;20049;-91
2023/04/18 11:37:01;;;;;;;7.30;6.15;;;;;;;15.67;62.51;101073.94;5042758;28;20039;-91
2023/04/18 11:40:16;;;;;;;7.68;5.65;;;;;;;15.55;61.31;101063.06;5037886;28;20025;-91
2023/04/18 11:43:03;;;;;;;6.47;5.20;;;;;;;15.39;63.70;101031.06;5028224;28;20037;-92
2023/04/18 11:45:55;;;;;;;6.97;5.88;;;;;;;15.49;62.43;101042.06;5038043;28;20051;-90
2023/04/18 11:48:38;;;;;;;6.32;5.35;;;;;;;15.50;63.57;101025.97;5038394;28;20072;-91
2023/04/18 11:51:46;;;;;;;7.35;5.32;;;;;;;15.73;61.72;101041.56;5042005;28;20069;-90
2023/04/18 11:54:44;;;;;;;5.60;5.10;;;;;;;15.82;61.98;101066.00;5045343;28;20064;-92
2023/04/18 11:57:37;;;;;;;5.97;4.72;;;;;;;15.57;61.71;101070.09;5039109;28;20125;-91
2023/04/18 12:00:41;;;;;;;6.50;4.80;;;;;;;15.33;62.62;101080.28;5298610;22;20067;-91
2023/04/18 12:03:28;;;;;;;5.65;5.05;;;;;;;14.99;62.24;101024.41;5028667;28;20085;-90
2023/04/18 12:06:06;;;;;;;5.45;4.95;;;;;;;15.17;61.51;101071.41;5448820;22;20321;-91
2023/04/18 12:08:52;;;;;;;6.10;4.70;;;;;;;15.11;62.62;101047.72;5122785;22;20151;-94
2023/04/18 12:11:36;;;;;;;5.97;5.20;;;;;;;15.15;63.22;101038.63;5090580;28;20051;-91
2023/04/18 12:14:27;;;;;;;6.03;5.43;;;;;;;14.92;64.07;101034.56;5100495;28;20058;-90